MCO weather

Orlando International Airport
Orlando, Florida, United States

Public forecast

Using degrees Fahrenheit for public forecast. Weather courtesy of forecast.io.

Current aviation weather report (METAR) for Orlando International Airport

Retrieved 2019/10/23 01:53 UTC (34 minutes ago):

KMCO 230153Z 28004KT 10SM FEW045 FEW250 28/22 A3001 RMK AO2 SLP160 T02780222

Aviation forecast (TAF) for Orlando International Airport

Retrieved 2019-10-23 00:22 UTC (2 hours ago):

TAF KMCO 222320Z 2300/2406 27008KT P6SM FEW100 SCT250 FM230300 31006KT P6SM SCT100 BKN250 FM230900 35006KT P6SM BKN250 FM231500 03012KT P6SM SCT040 BKN080 FM240000 04007KT P6SM FEW040 BKN120